Time;durP1;ratioP1;P1;durP2;ratioP2;P2;SDS_P1;SDS_P2;PMS_P1;PMS_P2;Temp;Humidity;BMP_temperature;BMP_pressure;BME280_temperature;BME280_humidity;BME280_pressure;Samples;Min_cycle;Max_cycle;Signal;HPM_P1;HPM_P2
2022/09/17 00:01:44;;;;;;;12.05;2.33;;;;;;;11.69;100.00;100944.16;4924395;28;20659;-81
2022/09/17 00:04:12;;;;;;;12.73;2.60;;;;;;;11.65;100.00;100951.19;4985566;28;20043;-79
2022/09/17 00:06:42;;;;;;;17.35;3.42;;;;;;;11.63;100.00;100931.84;4944313;28;20069;-79
2022/09/17 00:09:11;;;;;;;10.70;2.75;;;;;;;11.62;100.00;100935.34;4952024;28;20531;-79
2022/09/17 00:11:41;;;;;;;8.95;2.33;;;;;;;11.60;100.00;100946.78;4996604;28;20054;-78
2022/09/17 00:14:15;;;;;;;11.70;2.15;;;;;;;11.57;100.00;100942.41;4958506;28;20055;-78
2022/09/17 00:16:45;;;;;;;11.95;2.47;;;;;;;11.54;100.00;100939.75;4959306;28;20059;-81
2022/09/17 00:19:18;;;;;;;10.68;2.40;;;;;;;11.53;100.00;100948.56;4903179;28;20057;-78
2022/09/17 00:21:46;;;;;;;6.30;2.13;;;;;;;11.50;100.00;100945.91;4927429;28;20047;-80
2022/09/17 00:24:16;;;;;;;11.38;2.63;;;;;;;11.49;100.00;100938.84;4942616;28;20055;-78
2022/09/17 00:26:45;;;;;;;12.52;2.60;;;;;;;11.48;100.00;100943.25;4913873;28;20508;-79
2022/09/17 00:29:14;;;;;;;10.02;2.15;;;;;;;11.44;100.00;100944.16;4927983;28;20046;-79
2022/09/17 00:31:43;;;;;;;11.82;2.33;;;;;;;11.42;100.00;100951.19;4975650;28;20066;-79
2022/09/17 00:34:11;;;;;;;8.00;1.98;;;;;;;11.41;100.00;100953.81;4923727;28;20043;-79
2022/09/17 00:36:41;;;;;;;8.88;2.67;;;;;;;11.39;100.00;100960.84;4933311;28;20047;-78
2022/09/17 00:39:11;;;;;;;14.15;2.55;;;;;;;11.38;100.00;100953.81;4998131;28;20049;-80
2022/09/17 00:41:41;;;;;;;17.83;2.97;;;;;;;11.41;100.00;100967.88;4943135;28;20070;-79
2022/09/17 00:44:49;;;;;;;18.75;3.15;;;;;;;11.43;100.00;100962.63;4939592;28;20302;-79
2022/09/17 00:47:30;;;;;;;12.25;2.13;;;;;;;11.46;100.00;100968.78;4955060;28;20035;-78
2022/09/17 00:50:22;;;;;;;13.63;2.72;;;;;;;11.47;100.00;100964.38;4977254;28;20592;-80
2022/09/17 00:53:16;;;;;;;17.98;4.28;;;;;;;11.50;100.00;100967.03;5006260;28;20039;-78
2022/09/17 00:55:48;;;;;;;21.25;3.80;;;;;;;11.51;100.00;100971.41;4959415;28;20043;-78
2022/09/17 00:58:19;;;;;;;16.83;2.80;;;;;;;11.51;100.00;100971.41;4958268;28;20055;-78
2022/09/17 01:00:48;;;;;;;17.63;3.20;;;;;;;11.50;100.00;100961.75;4984547;28;20172;-79
2022/09/17 01:03:17;;;;;;;13.88;2.85;;;;;;;11.50;100.00;100970.53;4949001;28;20043;-78
2022/09/17 01:06:16;;;;;;;15.70;3.20;;;;;;;11.46;100.00;100963.50;4899423;28;20118;-80
2022/09/17 01:09:10;;;;;;;8.32;2.08;;;;;;;11.44;100.00;100967.03;4926250;28;20536;-79
2022/09/17 01:11:59;;;;;;;7.03;1.80;;;;;;;11.41;100.00;100967.00;4943343;28;20047;-79
2022/09/17 01:14:51;;;;;;;10.60;2.92;;;;;;;11.38;100.00;100969.63;4944288;28;20054;-79
2022/09/17 01:17:44;;;;;;;7.85;2.22;;;;;;;11.38;100.00;100964.34;4978144;28;20052;-79
2022/09/17 01:20:38;;;;;;;12.43;2.70;;;;;;;11.37;100.00;100962.59;4949175;28;20055;-79
2022/09/17 01:23:15;;;;;;;7.13;1.73;;;;;;;11.36;100.00;100958.19;4925562;28;20047;-79
2022/09/17 01:25:58;;;;;;;9.43;2.05;;;;;;;11.36;100.00;100968.75;4923416;29;20448;-79
2022/09/17 01:28:33;;;;;;;11.77;2.30;;;;;;;11.31;100.00;100961.72;4918022;28;20059;-78
2022/09/17 01:31:07;;;;;;;9.15;2.22;;;;;;;11.31;100.00;100972.25;4921694;28;20047;-79
2022/09/17 01:33:42;;;;;;;10.82;2.33;;;;;;;11.32;100.00;100978.41;4928331;29;20043;-78
2022/09/17 01:36:25;;;;;;;13.80;2.85;;;;;;;11.31;100.00;100980.19;4900340;28;20521;-79
2022/09/17 01:38:56;;;;;;;11.93;2.65;;;;;;;11.34;100.00;100981.06;4918093;29;20048;-78
2022/09/17 01:41:36;;;;;;;14.50;3.30;;;;;;;11.30;100.00;100978.44;4934960;28;20051;-79
2022/09/17 01:44:23;;;;;;;;;;;;;;;11.29;100.00;100975.78;4928885;28;20253;-78
2022/09/17 01:47:03;;;;;;;8.38;2.40;;;;;;;11.27;100.00;100961.72;4924931;28;20581;-78
2022/09/17 01:49:36;;;;;;;10.52;2.30;;;;;;;11.26;100.00;100963.44;4927069;29;20503;-79
2022/09/17 01:52:08;;;;;;;16.23;3.25;;;;;;;11.28;100.00;100969.59;4896877;28;20111;-79
2022/09/17 01:54:50;;;;;;;8.05;2.17;;;;;;;11.28;100.00;100974.00;4936679;29;20044;-79
2022/09/17 01:57:32;;;;;;;12.85;2.95;;;;;;;11.28;100.00;100969.59;4937598;28;20047;-78
2022/09/17 02:00:16;;;;;;;12.57;2.10;;;;;;;11.29;100.00;100976.66;4940496;28;20362;-78
2022/09/17 02:02:52;;;;;;;11.70;2.33;;;;;;;11.29;100.00;100970.50;4938361;28;20047;-79
2022/09/17 02:05:31;;;;;;;15.98;3.03;;;;;;;11.30;100.00;100981.06;4946117;28;20054;-78
2022/09/17 02:08:07;;;;;;;10.68;2.95;;;;;;;11.29;100.00;100970.50;4927174;28;20046;-78
2022/09/17 02:10:44;;;;;;;12.10;2.38;;;;;;;11.30;100.00;100980.16;4946130;28;20039;-78
2022/09/17 02:13:18;;;;;;;7.90;2.30;;;;;;;11.30;100.00;100973.16;4947265;28;20512;-78
2022/09/17 02:15:56;;;;;;;9.13;2.30;;;;;;;11.28;100.00;100979.28;4985867;28;20051;-79
2022/09/17 02:18:40;;;;;;;9.85;2.40;;;;;;;11.28;100.00;100968.75;4929327;28;20106;-78
2022/09/17 02:21:20;;;;;;;15.85;4.15;;;;;;;11.27;100.00;100975.78;4958658;28;20523;-78
2022/09/17 02:24:03;;;;;;;;;;;;;;;11.25;100.00;100974.91;4917987;28;20066;-78
2022/09/17 02:26:37;;;;;;;15.70;3.10;;;;;;;11.23;100.00;100976.66;4966447;28;20049;-79
2022/09/17 02:29:15;;;;;;;15.00;2.55;;;;;;;11.21;100.00;100972.22;4943799;28;20365;-78
2022/09/17 02:31:43;;;;;;;11.80;3.10;;;;;;;11.20;100.00;100976.63;4936067;28;20102;-79
2022/09/17 02:34:13;;;;;;;6.38;2.40;;;;;;;11.18;100.00;100972.25;4944540;28;20048;-79
2022/09/17 02:36:42;;;;;;;9.05;2.75;;;;;;;11.14;100.00;100976.63;4924380;28;20063;-79
2022/09/17 02:39:10;;;;;;;9.75;2.33;;;;;;;11.14;100.00;100974.00;4925892;28;20039;-78
2022/09/17 02:42:04;;;;;;;17.08;2.75;;;;;;;11.16;100.00;100966.09;4930040;28;20066;-78
2022/09/17 02:45:15;;;;;;;11.23;2.22;;;;;;;11.17;100.00;100976.66;4936432;28;20281;-78
2022/09/17 02:48:02;;;;;;;11.15;2.30;;;;;;;11.19;100.00;100972.25;4960026;28;20048;-80
2022/09/17 02:50:45;;;;;;;14.20;3.03;;;;;;;11.19;100.00;100979.25;4944345;28;20280;-79
2022/09/17 02:53:33;;;;;;;16.60;2.70;;;;;;;11.22;100.00;100980.16;4919549;28;20504;-79
2022/09/17 02:56:46;;;;;;;9.55;1.90;;;;;;;11.26;100.00;100973.13;4943506;28;20058;-79
2022/09/17 02:59:36;;;;;;;13.80;3.58;;;;;;;11.30;100.00;100973.16;4997639;28;20513;-78
2022/09/17 03:02:15;;;;;;;19.60;2.63;;;;;;;11.34;100.00;100981.06;4916004;28;20047;-79
2022/09/17 03:04:45;;;;;;;16.25;2.75;;;;;;;11.38;100.00;100982.81;4924392;28;20063;-78
2022/09/17 03:07:18;;;;;;;20.75;3.97;;;;;;;11.40;100.00;100981.06;4943084;28;20047;-79
2022/09/17 03:09:46;;;;;;;11.32;2.70;;;;;;;11.41;100.00;100982.84;4903679;28;20051;-78
2022/09/17 03:12:15;;;;;;;16.88;3.47;;;;;;;11.38;100.00;100980.19;4926854;28;20054;-78
2022/09/17 03:14:44;;;;;;;16.65;3.17;;;;;;;11.34;100.00;100973.16;4947236;28;20058;-78
2022/09/17 03:17:13;;;;;;;14.43;2.75;;;;;;;11.32;100.00;100970.50;4950503;28;20440;-79
2022/09/17 03:19:42;;;;;;;15.30;2.95;;;;;;;11.28;100.00;100972.25;4942898;28;20043;-78
2022/09/17 03:22:11;;;;;;;12.88;2.63;;;;;;;11.26;100.00;100967.84;4911792;28;20046;-80
2022/09/17 03:24:40;;;;;;;9.40;2.85;;;;;;;11.24;100.00;100967.84;4904204;28;20051;-78
2022/09/17 03:27:08;;;;;;;13.20;2.92;;;;;;;11.21;100.00;100970.50;4942340;28;20054;-79
2022/09/17 03:29:37;;;;;;;15.48;3.17;;;;;;;11.19;100.00;100969.63;4946649;28;20039;-78
2022/09/17 03:32:06;;;;;;;11.68;2.58;;;;;;;11.15;100.00;100967.81;4955857;28;20053;-78
2022/09/17 03:34:35;;;;;;;11.85;2.80;;;;;;;11.16;100.00;100979.28;4939639;28;20054;-79
2022/09/17 03:37:04;;;;;;;15.27;2.92;;;;;;;11.14;100.00;100974.00;4940153;28;20715;-78
2022/09/17 03:39:32;;;;;;;10.88;1.98;;;;;;;11.14;100.00;100976.63;4917689;28;20708;-79
2022/09/17 03:42:02;;;;;;;10.15;2.80;;;;;;;11.11;100.00;100977.50;4927008;28;20059;-79
2022/09/17 03:44:30;;;;;;;12.02;2.60;;;;;;;11.10;100.00;100982.78;4943290;28;20283;-79
2022/09/17 03:46:59;;;;;;;10.57;2.05;;;;;;;11.09;100.00;100978.34;4946440;28;20415;-80
2022/09/17 03:49:30;;;;;;;12.70;2.70;;;;;;;11.08;100.00;100979.25;5004362;28;20070;-79
2022/09/17 03:51:58;;;;;;;11.73;2.10;;;;;;;11.08;100.00;100981.88;4935218;28;20496;-79
2022/09/17 03:54:27;;;;;;;11.48;2.25;;;;;;;11.10;100.00;100985.41;4933880;28;20043;-79
2022/09/17 03:56:55;;;;;;;8.10;1.88;;;;;;;11.12;100.00;100992.44;4935891;28;20508;-79
2022/09/17 03:59:25;;;;;;;13.23;2.08;;;;;;;11.16;100.00;100988.06;4934269;28;20158;-78
2022/09/17 04:01:53;;;;;;;11.27;2.20;;;;;;;11.20;100.00;100983.69;4933064;28;20504;-78
2022/09/17 04:04:22;;;;;;;10.68;2.53;;;;;;;11.22;100.00;100988.06;4939143;28;20316;-78
2022/09/17 04:06:50;;;;;;;14.38;2.75;;;;;;;11.24;100.00;100983.66;4943911;28;20051;-78
2022/09/17 04:09:18;;;;;;;7.78;2.50;;;;;;;11.25;100.00;100992.50;4915352;28;20220;-77
2022/09/17 04:11:47;;;;;;;11.20;2.55;;;;;;;11.26;100.00;100992.47;4917026;28;20055;-78
2022/09/17 04:14:15;;;;;;;14.60;3.13;;;;;;;11.26;100.00;100981.91;4946049;28;20062;-78
2022/09/17 04:16:43;;;;;;;14.93;3.67;;;;;;;11.24;100.00;100988.94;4931460;28;20054;-80
2022/09/17 04:19:12;;;;;;;10.88;2.50;;;;;;;11.20;100.00;100984.53;4924111;28;20279;-78
2022/09/17 04:21:40;;;;;;;15.52;2.42;;;;;;;11.18;100.00;100980.16;4926632;28;20040;-79
2022/09/17 04:24:08;;;;;;;10.77;3.55;;;;;;;11.16;100.00;100995.97;4934614;28;20408;-79
2022/09/17 04:26:37;;;;;;;14.20;2.63;;;;;;;11.15;100.00;101002.09;4900718;28;20047;-79
2022/09/17 04:29:05;;;;;;;8.27;1.85;;;;;;;11.15;100.00;101015.28;4968425;28;20048;-79
2022/09/17 04:31:36;;;;;;;13.15;3.55;;;;;;;11.15;100.00;101044.31;4943283;28;20051;-78
2022/09/17 04:34:05;;;;;;;7.55;1.75;;;;;;;10.99;100.00;101021.41;4925045;28;20051;-79
2022/09/17 04:36:33;;;;;;;7.85;2.00;;;;;;;10.83;100.00;100999.34;4921367;28;20063;-78
2022/09/17 04:39:02;;;;;;;15.15;2.53;;;;;;;10.70;100.00;100998.44;4945725;28;20048;-78
2022/09/17 04:41:30;;;;;;;7.38;2.08;;;;;;;10.60;100.00;100997.47;4915711;28;20728;-78
2022/09/17 04:43:59;;;;;;;14.85;2.00;;;;;;;10.52;100.00;101001.84;4902870;28;20047;-79
2022/09/17 04:46:27;;;;;;;10.70;2.60;;;;;;;10.43;100.00;101000.00;4933602;29;20260;-79
2022/09/17 04:48:55;;;;;;;20.88;3.53;;;;;;;10.36;100.00;101000.88;5000553;28;20047;-80
2022/09/17 04:51:24;;;;;;;7.80;2.10;;;;;;;10.31;100.00;100998.19;4989698;28;20557;-79
2022/09/17 04:53:52;;;;;;;12.60;3.05;;;;;;;10.28;100.00;100998.16;4891405;28;20059;-79
2022/09/17 04:56:21;;;;;;;11.40;3.25;;;;;;;10.26;100.00;101004.25;4904726;28;20272;-79
2022/09/17 04:58:49;;;;;;;13.02;2.90;;;;;;;10.23;100.00;101009.53;4919349;28;20047;-78
2022/09/17 05:01:18;;;;;;;18.45;3.83;;;;;;;10.17;100.00;101047.22;4964985;28;20055;-79
2022/09/17 05:03:46;;;;;;;12.48;3.03;;;;;;;10.07;100.00;101012.00;4969953;28;20078;-79
2022/09/17 05:06:15;;;;;;;13.32;2.50;;;;;;;10.08;100.00;101007.66;4982787;28;20374;-79
2022/09/17 05:08:43;;;;;;;12.30;2.85;;;;;;;10.09;100.00;101010.31;4969681;28;20365;-79
2022/09/17 05:11:12;;;;;;;13.73;3.00;;;;;;;10.09;100.00;101001.50;4922369;28;20062;-80
2022/09/17 05:13:40;;;;;;;15.25;3.60;;;;;;;10.10;100.00;101004.16;4922894;28;20059;-78
2022/09/17 05:16:09;;;;;;;17.27;3.33;;;;;;;10.12;100.00;101001.53;4946694;28;20070;-79
2022/09/17 05:18:37;;;;;;;18.92;3.25;;;;;;;10.13;100.00;101006.81;4948240;28;20074;-79
2022/09/17 05:21:07;;;;;;;17.88;3.15;;;;;;;10.13;100.00;101008.56;4948589;28;20404;-79
2022/09/17 05:23:35;;;;;;;16.70;2.78;;;;;;;10.13;100.00;101012.09;4990500;28;20401;-79
2022/09/17 05:26:04;;;;;;;13.63;3.00;;;;;;;10.10;100.00;101012.06;4942280;28;20055;-80
2022/09/17 05:28:33;;;;;;;13.35;3.13;;;;;;;10.09;100.00;101022.56;4947281;28;20335;-78
2022/09/17 05:31:02;;;;;;;9.55;2.50;;;;;;;10.05;100.00;101015.50;4990694;28;20120;-79
2022/09/17 05:33:30;;;;;;;13.02;2.47;;;;;;;10.04;100.00;101021.66;4996663;28;20040;-79
2022/09/17 05:35:59;;;;;;;8.35;1.77;;;;;;;10.01;100.00;101025.13;5001514;28;20046;-79
2022/09/17 05:38:27;;;;;;;11.45;2.20;;;;;;;10.01;100.00;101024.25;4944090;28;20050;-80
2022/09/17 05:40:56;;;;;;;9.45;1.77;;;;;;;10.02;100.00;101026.91;4926737;28;20052;-81
2022/09/17 05:43:25;;;;;;;11.40;2.33;;;;;;;10.08;100.00;101026.09;4917996;28;20714;-79
2022/09/17 05:45:54;;;;;;;9.07;2.78;;;;;;;10.10;100.00;101025.22;4947487;28;20527;-79
2022/09/17 05:48:22;;;;;;;7.72;1.92;;;;;;;10.11;100.00;101032.25;4929869;28;20681;-79
2022/09/17 05:50:50;;;;;;;10.45;2.55;;;;;;;10.13;100.00;101024.34;4946867;28;20054;-79
2022/09/17 05:53:23;;;;;;;14.70;2.70;;;;;;;10.16;100.00;101019.13;4936278;28;20058;-79
2022/09/17 05:55:58;;;;;;;14.90;2.97;;;;;;;10.20;100.00;101022.66;4923469;28;20044;-79
2022/09/17 05:58:28;;;;;;;10.98;2.95;;;;;;;10.22;100.00;101013.88;4940549;28;20331;-79
2022/09/17 06:01:00;;;;;;;13.35;2.85;;;;;;;10.27;100.00;101013.94;4964591;28;20047;-80
2022/09/17 06:03:28;;;;;;;15.55;3.03;;;;;;;10.32;100.00;101023.66;4960848;28;20556;-79
2022/09/17 06:05:58;;;;;;;14.80;2.92;;;;;;;10.37;100.00;101015.78;4959611;28;20062;-80
2022/09/17 06:08:28;;;;;;;7.33;2.27;;;;;;;10.42;100.00;101008.81;4945997;28;20051;-79
2022/09/17 06:10:56;;;;;;;14.55;2.75;;;;;;;10.47;100.00;101017.63;4937248;28;20062;-79
2022/09/17 06:13:29;;;;;;;9.25;2.05;;;;;;;10.56;100.00;101018.53;4958990;28;20248;-78
2022/09/17 06:15:59;;;;;;;10.43;1.83;;;;;;;10.65;100.00;101016.84;4917505;28;20500;-79
2022/09/17 06:18:29;;;;;;;11.13;2.33;;;;;;;10.80;100.00;101028.34;4944344;28;20062;-78
2022/09/17 06:21:00;;;;;;;17.13;2.50;;;;;;;10.95;100.00;101044.25;4947409;28;20050;-79
2022/09/17 06:23:34;;;;;;;10.20;2.20;;;;;;;11.11;100.00;101030.25;4950795;28;20154;-79
2022/09/17 06:26:04;;;;;;;9.75;2.15;;;;;;;11.22;100.00;101034.69;4925955;28;20055;-79
2022/09/17 06:28:33;;;;;;;12.23;2.80;;;;;;;11.27;100.00;101047.00;4943452;28;20279;-79
2022/09/17 06:31:09;;;;;;;10.52;2.13;;;;;;;11.34;100.00;101039.09;4918311;28;20043;-80
2022/09/17 06:33:38;;;;;;;12.50;2.97;;;;;;;11.41;100.00;101041.75;4944632;28;20044;-78
2022/09/17 06:36:10;;;;;;;11.65;2.22;;;;;;;11.48;100.00;101040.03;4930144;28;20060;-80
2022/09/17 06:38:41;;;;;;;14.95;3.22;;;;;;;11.50;100.00;101043.56;4950732;28;20043;-79
2022/09/17 06:41:11;;;;;;;6.63;1.67;;;;;;;11.55;100.00;101036.53;4902523;28;20039;-79
2022/09/17 06:43:39;;;;;;;11.70;2.10;;;;;;;11.62;100.00;101037.41;4989914;28;20041;-80
2022/09/17 06:46:10;;;;;;;8.98;2.65;;;;;;;11.66;100.00;101040.09;4912417;28;20044;-79
2022/09/17 06:48:38;;;;;;;9.75;2.15;;;;;;;11.70;100.00;101041.84;4946189;28;20043;-78
2022/09/17 06:51:09;;;;;;;7.10;2.13;;;;;;;11.68;100.00;101045.34;4938109;28;20051;-79
2022/09/17 06:53:39;;;;;;;8.05;2.35;;;;;;;11.62;100.00;101035.66;4956745;28;20393;-78
2022/09/17 06:56:08;;;;;;;7.47;1.58;;;;;;;11.58;100.00;101040.94;5023741;28;20055;-79
2022/09/17 06:58:37;;;;;;;12.65;2.70;;;;;;;11.78;100.00;101051.53;4960676;28;20055;-80
2022/09/17 07:01:05;;;;;;;9.90;2.67;;;;;;;12.17;100.00;101047.19;4918893;28;20118;-79
2022/09/17 07:03:33;;;;;;;17.20;2.55;;;;;;;12.51;100.00;101044.50;4946337;28;20248;-79
2022/09/17 07:06:03;;;;;;;9.73;2.30;;;;;;;12.79;100.00;101048.84;4997726;28;20363;-80
2022/09/17 07:08:33;;;;;;;9.00;2.20;;;;;;;13.07;98.84;101051.41;4971148;28;20043;-79
2022/09/17 07:11:01;;;;;;;8.63;1.90;;;;;;;13.28;96.56;101050.44;4948097;28;20051;-80
2022/09/17 07:13:30;;;;;;;7.25;2.08;;;;;;;13.43;95.45;101049.50;4937519;28;20547;-78
2022/09/17 07:16:00;;;;;;;13.48;2.83;;;;;;;13.53;94.06;101048.56;4949619;28;20515;-79
2022/09/17 07:18:29;;;;;;;10.98;2.45;;;;;;;13.67;93.19;101055.53;4936350;28;20215;-79
2022/09/17 07:21:03;;;;;;;14.05;2.42;;;;;;;13.83;91.29;101043.97;4947414;28;20048;-79
2022/09/17 07:23:34;;;;;;;9.40;2.50;;;;;;;14.13;92.00;101044.63;4995481;28;20277;-78
2022/09/17 07:26:05;;;;;;;13.55;3.70;;;;;;;14.53;91.89;101041.59;4930763;28;20044;-79
2022/09/17 07:28:34;;;;;;;12.45;2.55;;;;;;;14.87;91.47;101046.59;4940919;28;20059;-80
2022/09/17 07:31:04;;;;;;;9.05;1.92;;;;;;;14.79;89.71;101054.63;4937103;28;20046;-81
2022/09/17 07:33:34;;;;;;;9.63;1.70;;;;;;;14.45;89.24;101067.31;4919940;28;20434;-79
2022/09/17 07:36:13;;;;;;;10.43;2.38;;;;;;;14.01;88.73;101041.19;4922375;28;20059;-80
2022/09/17 07:38:43;;;;;;;9.38;2.17;;;;;;;13.61;92.87;101062.66;4957572;28;20075;-80
2022/09/17 07:41:14;;;;;;;8.90;1.92;;;;;;;13.39;94.41;101061.00;4943033;28;20043;-80
2022/09/17 07:43:43;;;;;;;6.85;1.80;;;;;;;13.29;96.44;101053.94;4987106;28;20035;-79
2022/09/17 07:46:17;;;;;;;6.03;1.17;;;;;;;13.01;95.14;101054.97;4925023;28;20050;-78
2022/09/17 07:48:48;;;;;;;5.30;1.30;;;;;;;12.77;96.01;101061.19;4914363;28;20095;-80
2022/09/17 07:51:20;;;;;;;4.50;1.10;;;;;;;12.54;97.00;101073.59;4937698;28;20047;-79
2022/09/17 07:53:57;;;;;;;6.85;1.50;;;;;;;12.43;99.44;101071.81;4930945;28;20165;-79
2022/09/17 07:56:26;;;;;;;4.68;2.15;;;;;;;12.62;100.00;101062.09;4937725;28;20050;-79
2022/09/17 07:58:55;;;;;;;5.65;1.63;;;;;;;12.88;100.00;101054.13;4929868;28;20654;-79
2022/09/17 08:01:23;;;;;;;5.22;1.83;;;;;;;13.09;100.00;101054.06;4926160;28;20055;-79
2022/09/17 08:03:53;;;;;;;5.18;1.05;;;;;;;13.02;99.37;101061.13;4910264;28;20045;-80
2022/09/17 08:06:28;;;;;;;3.33;1.08;;;;;;;12.90;96.48;101069.13;4938201;28;20066;-79
2022/09/17 08:09:01;;;;;;;2.33;1.42;;;;;;;12.72;94.83;101068.28;5013013;28;20076;-79
2022/09/17 08:11:30;;;;;;;9.00;1.77;;;;;;;12.50;96.70;101048.06;4922455;28;20264;-79
2022/09/17 08:14:18;;;;;;;6.55;1.20;;;;;;;12.41;96.99;101056.88;4941718;28;20035;-80
2022/09/17 08:16:47;;;;;;;7.35;1.00;;;;;;;12.36;97.63;101055.97;4953213;28;20055;-79
2022/09/17 08:19:17;;;;;;;5.28;1.80;;;;;;;12.32;97.98;101059.50;4909628;28;20564;-79
2022/09/17 08:21:46;;;;;;;6.45;1.33;;;;;;;12.28;98.16;101062.13;4993073;28;20035;-79
2022/09/17 08:24:14;;;;;;;7.95;1.48;;;;;;;12.32;99.64;101051.59;4896566;28;20062;-79
2022/09/17 08:26:42;;;;;;;9.90;1.77;;;;;;;12.30;99.87;101054.22;4931094;28;20048;-79
2022/09/17 08:29:11;;;;;;;11.20;1.88;;;;;;;12.44;100.00;101060.38;4938350;28;20047;-79
2022/09/17 08:31:39;;;;;;;4.15;1.90;;;;;;;12.77;100.00;101057.69;4957949;28;20048;-79
2022/09/17 08:34:08;;;;;;;8.68;1.88;;;;;;;13.17;100.00;101053.13;5042519;28;20049;-80
2022/09/17 08:36:37;;;;;;;11.48;2.47;;;;;;;13.50;100.00;101042.44;4982704;28;20061;-79
2022/09/17 08:39:06;;;;;;;11.95;2.40;;;;;;;13.87;100.00;101047.47;5048573;28;20046;-79
2022/09/17 08:41:48;;;;;;;8.63;1.77;;;;;;;14.23;92.74;101046.28;5025449;28;20037;-80
2022/09/17 08:44:35;;;;;;;9.02;1.90;;;;;;;14.54;91.25;101040.72;5029934;28;20049;-80
2022/09/17 08:47:14;;;;;;;12.40;2.45;;;;;;;14.78;88.86;101043.16;5016378;28;20383;-80
2022/09/17 08:49:53;;;;;;;11.20;2.30;;;;;;;14.99;84.35;101043.81;5008568;28;20596;-80
2022/09/17 08:52:40;;;;;;;9.90;2.10;;;;;;;15.16;81.98;101038.25;4989481;28;20053;-80
2022/09/17 08:55:25;;;;;;;12.70;3.20;;;;;;;15.25;85.61;101034.63;5037225;28;20053;-81
2022/09/17 08:58:26;;;;;;;15.25;2.20;;;;;;;15.27;79.10;101031.03;5046786;28;20053;-79
2022/09/17 09:01:10;;;;;;;12.07;2.33;;;;;;;15.18;85.82;101037.38;5019119;28;20045;-80
2022/09/17 09:03:58;;;;;;;10.68;2.38;;;;;;;15.07;86.49;101039.28;5027069;28;20029;-80
2022/09/17 09:06:34;;;;;;;10.10;2.25;;;;;;;15.03;87.00;101042.88;4947174;28;20480;-81
2022/09/17 09:09:12;;;;;;;8.25;2.03;;;;;;;15.01;85.88;101032.25;4940179;28;20466;-79
2022/09/17 09:11:47;;;;;;;12.77;2.28;;;;;;;15.04;87.78;101031.34;4936663;28;20039;-79
2022/09/17 09:14:19;;;;;;;7.22;1.58;;;;;;;15.01;87.05;101048.19;4921202;28;20093;-79
2022/09/17 09:16:51;;;;;;;11.38;2.58;;;;;;;14.95;84.12;101050.03;4933059;28;20040;-80
2022/09/17 09:19:27;;;;;;;9.75;2.38;;;;;;;14.92;83.41;101050.06;4938303;28;20272;-79
2022/09/17 09:22:04;;;;;;;13.07;2.17;;;;;;;14.94;86.57;101045.63;4948004;28;20048;-79
2022/09/17 09:24:41;;;;;;;10.30;2.10;;;;;;;14.97;85.96;101045.56;4930019;28;20036;-79
2022/09/17 09:27:21;;;;;;;10.10;2.35;;;;;;;14.99;83.23;101039.38;4937235;28;20704;-79
2022/09/17 09:29:56;;;;;;;9.15;3.22;;;;;;;15.00;82.98;101046.41;4949282;28;20048;-79
2022/09/17 09:32:28;;;;;;;9.32;1.85;;;;;;;15.01;82.45;101042.00;4936431;28;20078;-81
2022/09/17 09:35:32;;;;;;;9.75;1.90;;;;;;;15.02;79.53;101034.00;4932348;28;20052;-79
2022/09/17 09:38:08;;;;;;;7.07;2.20;;;;;;;15.06;77.92;101040.16;4921524;28;20521;-80
2022/09/17 09:40:56;;;;;;;7.60;2.05;;;;;;;15.09;77.32;101039.25;4934447;28;20376;-79
2022/09/17 09:43:58;;;;;;;9.68;2.22;;;;;;;15.18;78.45;101041.81;4941412;28;20048;-78
2022/09/17 09:47:04;;;;;;;12.90;2.40;;;;;;;15.28;81.06;101048.75;4941625;28;20542;-79
2022/09/17 09:49:55;;;;;;;18.23;2.35;;;;;;;15.35;76.43;101042.44;4898227;28;20495;-79
2022/09/17 09:53:01;;;;;;;9.30;2.10;;;;;;;15.19;75.12;101062.13;4937699;28;20464;-80
2022/09/17 09:55:42;;;;;;;15.43;2.45;;;;;;;15.13;76.42;101036.53;4935700;28;20055;-80
2022/09/17 09:58:20;;;;;;;8.25;2.30;;;;;;;15.13;77.40;101040.97;4940118;28;20044;-79
2022/09/17 10:00:49;;;;;;;9.13;2.38;;;;;;;15.12;73.75;101045.41;4939567;28;20067;-80
2022/09/17 10:03:21;;;;;;;9.88;1.60;;;;;;;15.10;71.65;101055.13;4950255;28;20234;-79
2022/09/17 10:05:57;;;;;;;5.80;1.70;;;;;;;15.06;70.14;101049.91;4952952;28;20063;-79
2022/09/17 10:08:27;;;;;;;10.13;2.97;;;;;;;14.98;72.58;101056.16;4928454;28;20287;-80
2022/09/17 10:11:15;;;;;;;9.77;2.00;;;;;;;15.00;72.75;101057.03;4939651;28;20051;-79
2022/09/17 10:13:44;;;;;;;9.57;2.30;;;;;;;14.97;72.55;101043.81;4947227;28;20047;-78
2022/09/17 10:16:25;;;;;;;11.95;2.17;;;;;;;15.00;72.45;101046.41;4949249;28;20044;-78
2022/09/17 10:19:02;;;;;;;;;;;;;;;15.05;72.24;101048.13;4950674;28;20043;-79
2022/09/17 10:21:33;;;;;;;12.13;2.50;;;;;;;15.13;75.96;101044.50;4942043;28;19949;-78
2022/09/17 10:24:13;;;;;;;6.95;1.88;;;;;;;15.25;76.36;101039.94;4910805;28;20040;-79
2022/09/17 10:26:42;;;;;;;11.43;2.60;;;;;;;15.25;77.62;101050.56;4938501;28;20050;-78
2022/09/17 10:29:15;;;;;;;10.55;2.60;;;;;;;15.08;79.02;101058.72;4944533;28;20247;-79
2022/09/17 10:31:51;;;;;;;6.40;2.17;;;;;;;14.86;80.97;101068.69;5016532;28;20051;-79
2022/09/17 10:34:23;;;;;;;11.07;2.42;;;;;;;14.62;81.33;101060.13;5008252;28;20177;-80
2022/09/17 10:36:52;;;;;;;9.02;2.28;;;;;;;14.48;83.66;101054.03;4923339;28;20062;-78
2022/09/17 10:39:32;;;;;;;12.82;2.47;;;;;;;14.38;84.04;101056.75;4913381;28;20226;-78
2022/09/17 10:42:10;;;;;;;14.52;3.50;;;;;;;14.43;85.35;101056.72;4941841;28;20043;-79
2022/09/17 10:44:50;;;;;;;12.48;2.05;;;;;;;14.55;85.58;101048.63;4969718;28;20050;-78
2022/09/17 10:47:24;;;;;;;8.35;2.63;;;;;;;14.72;85.16;101053.81;4934232;28;20150;-80
2022/09/17 10:50:04;;;;;;;9.73;2.15;;;;;;;14.90;83.31;101044.78;4921931;28;20048;-79
2022/09/17 10:52:36;;;;;;;12.18;2.40;;;;;;;15.03;82.16;101045.53;4940903;28;20055;-80
2022/09/17 10:55:14;;;;;;;11.60;2.85;;;;;;;15.13;81.66;101051.59;4932532;28;20098;-78
2022/09/17 10:58:06;;;;;;;11.75;1.95;;;;;;;15.15;77.34;101050.66;4967077;28;20036;-78
2022/09/17 11:00:44;;;;;;;6.63;1.85;;;;;;;15.15;76.63;101050.66;4931963;28;20044;-78
2022/09/17 11:03:43;;;;;;;9.07;2.10;;;;;;;15.24;78.09;101051.47;5016590;28;20056;-82
2022/09/17 11:06:49;;;;;;;6.10;2.03;;;;;;;15.27;72.25;101041.66;4952372;28;20408;-79
2022/09/17 11:09:32;;;;;;;10.07;1.77;;;;;;;15.32;72.90;101042.47;4958265;28;20054;-79
2022/09/17 11:12:31;;;;;;;8.45;2.00;;;;;;;15.40;71.41;101029.97;4968411;28;20055;-77
2022/09/17 11:15:19;;;;;;;10.77;2.13;;;;;;;15.47;72.44;101040.53;4967737;28;20062;-79
2022/09/17 11:17:57;;;;;;;14.00;2.80;;;;;;;15.50;76.65;101046.69;4985769;28;20047;-78
2022/09/17 11:20:35;;;;;;;10.50;2.13;;;;;;;15.58;76.42;101041.25;4961192;28;20397;-79
2022/09/17 11:23:46;;;;;;;11.23;2.20;;;;;;;15.63;69.94;101051.81;4954223;28;20538;-81
2022/09/17 11:26:34;;;;;;;10.10;2.55;;;;;;;15.64;75.52;101048.25;4948991;28;20087;-78
2022/09/17 11:29:28;;;;;;;8.45;1.95;;;;;;;15.50;72.68;101046.69;4950466;28;20058;-80
2022/09/17 11:32:20;;;;;;;11.52;2.40;;;;;;;15.50;70.45;101056.41;4945846;28;20051;-78
2022/09/17 11:35:04;;;;;;;11.05;1.88;;;;;;;15.55;70.53;101042.16;4951982;28;20199;-78
2022/09/17 11:37:42;;;;;;;11.07;2.88;;;;;;;15.59;71.75;101057.19;4988108;28;20072;-80
2022/09/17 11:40:35;;;;;;;14.02;2.63;;;;;;;15.71;71.56;101050.81;5005631;28;20052;-80
2022/09/17 11:43:26;;;;;;;6.20;2.00;;;;;;;15.73;72.06;101061.41;4965701;28;20055;-81
2022/09/17 11:46:14;;;;;;;9.45;2.53;;;;;;;15.57;71.36;101056.28;4978122;28;20069;-81
2022/09/17 11:48:49;;;;;;;15.13;2.05;;;;;;;15.41;73.03;101062.75;4948755;28;20062;-81
2022/09/17 11:51:25;;;;;;;11.27;2.13;;;;;;;15.22;70.85;101070.06;4947836;28;20030;-81
2022/09/17 11:54:36;;;;;;;4.75;1.35;;;;;;;15.19;68.51;101072.75;5037636;28;20047;-81